Time;durP1;ratioP1;P1;durP2;ratioP2;P2;SDS_P1;SDS_P2;PMS_P1;PMS_P2;Temp;Humidity;BMP_temperature;BMP_pressure;BME280_temperature;BME280_humidity;BME280_pressure;Samples;Min_cycle;Max_cycle;Signal;HPM_P1;HPM_P2
2022/11/14 00:02:07;;;;;;;32.67;29.73;;;;;;;;;;5039164;28;20583;-55
2022/11/14 00:04:32;;;;;;;32.27;29.40;;;;;;;;;;5043029;28;20252;-55
2022/11/14 00:06:57;;;;;;;32.20;29.50;;;;;;;;;;5047946;28;20554;-55
2022/11/14 00:09:25;;;;;;;31.70;29.00;;;;;;;;;;5054257;28;20195;-55
2022/11/14 00:11:51;;;;;;;33.80;30.80;;;;;;;;;;5038218;28;20208;-55
2022/11/14 00:14:16;;;;;;;29.97;27.50;;;;;;;;;;5035993;28;20613;-55
2022/11/14 00:16:41;;;;;;;31.50;28.80;;;;;;;;;;5051761;28;20187;-55
2022/11/14 00:19:06;;;;;;;30.30;27.70;;;;;;;;;;5045263;28;20662;-56
2022/11/14 00:21:31;;;;;;;32.47;29.60;;;;;;;;;;5039638;28;20183;-55
2022/11/14 00:23:56;;;;;;;28.90;26.20;;;;;;;;;;5038456;28;20667;-54
2022/11/14 00:26:22;;;;;;;30.17;27.45;;;;;;;;;;5050287;28;20303;-55
2022/11/14 00:28:47;;;;;;;30.40;27.80;;;;;;;;;;5054850;28;20190;-54
2022/11/14 00:31:12;;;;;;;30.60;28.00;;;;;;;;;;5054398;28;20263;-56
2022/11/14 00:33:37;;;;;;;29.63;27.03;;;;;;;;;;5056109;28;20178;-54
2022/11/14 00:36:03;;;;;;;30.20;27.67;;;;;;;;;;5047240;28;20301;-53
2022/11/14 00:38:28;;;;;;;32.70;29.90;;;;;;;;;;5040275;28;20196;-54
2022/11/14 00:40:53;;;;;;;32.40;29.43;;;;;;;;;;5035816;28;20175;-55
2022/11/14 00:43:18;;;;;;;32.57;29.70;;;;;;;;;;5040725;28;20598;-54
2022/11/14 00:45:44;;;;;;;29.80;27.00;;;;;;;;;;5042718;28;20179;-54
2022/11/14 00:48:09;;;;;;;29.93;27.33;;;;;;;;;;5036692;28;20202;-53
2022/11/14 00:50:34;;;;;;;30.33;27.50;;;;;;;;;;5041597;28;20202;-56
2022/11/14 00:52:59;;;;;;;30.47;27.87;;;;;;;;;;5052383;28;20273;-55
2022/11/14 00:55:25;;;;;;;30.23;27.53;;;;;;;;;;5052754;28;20207;-55
2022/11/14 00:57:50;;;;;;;30.03;27.33;;;;;;;;;;5039183;28;20534;-54
2022/11/14 01:00:15;;;;;;;28.85;26.17;;;;;;;;;;5048274;28;20210;-55
2022/11/14 01:02:40;;;;;;;28.47;26.07;;;;;;;;;;5053940;28;20529;-55
2022/11/14 01:05:05;;;;;;;30.23;27.60;;;;;;;;;;5053730;28;20230;-55
2022/11/14 01:07:31;;;;;;;29.60;27.00;;;;;;;;;;5049122;28;20201;-55
2022/11/14 01:09:56;;;;;;;28.00;25.70;;;;;;;;;;5037107;28;20185;-55
2022/11/14 01:12:21;;;;;;;28.80;26.43;;;;;;;;;;5043275;28;20205;-55
2022/11/14 01:14:46;;;;;;;29.37;26.87;;;;;;;;;;5051517;28;20209;-55
2022/11/14 01:17:11;;;;;;;28.67;26.23;;;;;;;;;;5041020;28;20184;-55
2022/11/14 01:19:37;;;;;;;28.83;26.33;;;;;;;;;;5043141;28;20288;-55
2022/11/14 01:22:02;;;;;;;28.87;26.47;;;;;;;;;;5043988;28;20173;-55
2022/11/14 01:24:27;;;;;;;28.47;25.97;;;;;;;;;;5040059;28;20384;-55
2022/11/14 01:26:55;;;;;;;27.43;25.10;;;;;;;;;;5045098;28;20181;-55
2022/11/14 01:29:21;;;;;;;28.13;25.77;;;;;;;;;;5042371;28;20188;-56
2022/11/14 01:31:46;;;;;;;28.07;25.67;;;;;;;;;;5044026;28;20612;-55
2022/11/14 01:34:11;;;;;;;28.00;25.70;;;;;;;;;;5033933;28;20535;-56
2022/11/14 01:36:36;;;;;;;28.17;25.77;;;;;;;;;;5047106;28;20193;-56
2022/11/14 01:39:01;;;;;;;26.50;24.20;;;;;;;;;;5036174;28;20224;-55
2022/11/14 01:41:26;;;;;;;27.63;25.23;;;;;;;;;;5034323;28;20199;-56
2022/11/14 01:43:52;;;;;;;27.63;25.30;;;;;;;;;;5038036;28;20218;-55
2022/11/14 01:46:26;;;;;;;27.23;24.73;;;;;;;;;;5048989;28;20728;-54
2022/11/14 01:49:09;;;;;;;27.67;25.37;;;;;;;;;;5036681;28;20220;-55
2022/11/14 01:51:38;;;;;;;27.37;25.17;;;;;;;;;;5041526;28;20610;-54
2022/11/14 01:54:06;;;;;;;27.57;25.17;;;;;;;;;;5036215;28;20657;-55
2022/11/14 01:56:36;;;;;;;27.17;25.00;;;;;;;;;;5034359;28;20742;-55
2022/11/14 01:59:05;;;;;;;27.27;24.97;;;;;;;;;;5044858;28;20660;-55
2022/11/14 02:01:32;;;;;;;26.37;24.17;;;;;;;;;;5032382;28;20706;-55
2022/11/14 02:03:58;;;;;;;25.73;23.63;;;;;;;;;;5033779;28;20619;-55
2022/11/14 02:06:26;;;;;;;26.80;24.60;;;;;;;;;;5031717;28;20983;-55
2022/11/14 02:08:51;;;;;;;26.30;24.00;;;;;;;;;;5035703;28;20185;-55
2022/11/14 02:11:16;;;;;;;24.93;22.70;;;;;;;;;;5031821;28;20622;-55
2022/11/14 02:13:41;;;;;;;26.27;24.10;;;;;;;;;;5037783;28;20235;-55
2022/11/14 02:16:07;;;;;;;26.57;24.17;;;;;;;;;;5033447;28;20658;-55
2022/11/14 02:18:32;;;;;;;27.10;24.63;;;;;;;;;;5043335;28;20213;-55
2022/11/14 02:20:57;;;;;;;25.73;23.53;;;;;;;;;;5036330;28;20718;-55
2022/11/14 02:23:30;;;;;;;25.60;23.40;;;;;;;;;;5030213;28;20206;-55
2022/11/14 02:25:56;;;;;;;25.77;23.53;;;;;;;;;;5035439;28;20261;-54
2022/11/14 02:28:22;;;;;;;25.93;23.73;;;;;;;;;;5034787;28;21481;-54
2022/11/14 02:30:47;;;;;;;26.10;24.00;;;;;;;;;;5043019;28;20213;-55
2022/11/14 02:33:12;;;;;;;27.00;24.70;;;;;;;;;;5036469;28;20253;-55
2022/11/14 02:35:37;;;;;;;25.27;23.00;;;;;;;;;;5031119;28;20248;-55
2022/11/14 02:38:03;;;;;;;24.77;22.73;;;;;;;;;;5040903;28;20190;-55
2022/11/14 02:40:28;;;;;;;25.13;23.20;;;;;;;;;;5047236;28;20175;-55
2022/11/14 02:42:53;;;;;;;25.30;23.00;;;;;;;;;;5034657;28;20680;-55
2022/11/14 02:45:19;;;;;;;25.77;23.70;;;;;;;;;;5048583;28;20174;-55
2022/11/14 02:47:44;;;;;;;24.33;22.33;;;;;;;;;;5036500;28;20747;-56
2022/11/14 02:50:10;;;;;;;25.10;23.00;;;;;;;;;;5033835;28;20716;-57
2022/11/14 02:52:35;;;;;;;24.67;22.70;;;;;;;;;;5030007;28;20278;-55
2022/11/14 02:55:00;;;;;;;26.27;24.00;;;;;;;;;;5034983;28;20186;-56
2022/11/14 02:57:25;;;;;;;27.20;24.90;;;;;;;;;;5028393;28;20188;-55
2022/11/14 02:59:50;;;;;;;25.73;23.63;;;;;;;;;;5029482;28;20330;-55
2022/11/14 03:02:15;;;;;;;24.87;22.77;;;;;;;;;;5041924;28;20253;-55
2022/11/14 03:04:41;;;;;;;25.70;23.40;;;;;;;;;;5035148;28;20186;-54
2022/11/14 03:07:06;;;;;;;26.37;24.27;;;;;;;;;;5045259;28;20240;-54
2022/11/14 03:09:31;;;;;;;25.83;23.73;;;;;;;;;;5048452;28;20187;-55
2022/11/14 03:11:56;;;;;;;27.17;24.87;;;;;;;;;;5034878;28;20271;-54
2022/11/14 03:14:21;;;;;;;26.92;24.55;;;;;;;;;;5032621;28;20636;-54
2022/11/14 03:16:46;;;;;;;29.20;26.50;;;;;;;;;;5030152;28;20230;-54
2022/11/14 03:19:12;;;;;;;25.53;23.53;;;;;;;;;;5039586;28;20643;-58
2022/11/14 03:21:37;;;;;;;25.77;23.50;;;;;;;;;;5036177;28;20260;-54
2022/11/14 03:24:02;;;;;;;26.40;24.10;;;;;;;;;;5032003;28;20182;-54
2022/11/14 03:26:27;;;;;;;26.63;24.43;;;;;;;;;;5040063;28;20180;-54
2022/11/14 03:28:54;;;;;;;25.20;23.20;;;;;;;;;;5043595;28;20237;-55
2022/11/14 03:31:19;;;;;;;27.60;25.20;;;;;;;;;;5042358;28;20191;-55
2022/11/14 03:33:44;;;;;;;25.37;23.20;;;;;;;;;;5042727;28;21174;-54
2022/11/14 03:36:10;;;;;;;25.27;23.17;;;;;;;;;;5034873;28;20666;-55
2022/11/14 03:38:35;;;;;;;27.20;25.00;;;;;;;;;;5031036;28;20215;-55
2022/11/14 03:41:00;;;;;;;26.70;24.50;;;;;;;;;;5030694;28;20165;-54
2022/11/14 03:43:28;;;;;;;26.20;24.00;;;;;;;;;;5038918;28;20194;-55
2022/11/14 03:45:56;;;;;;;24.63;22.63;;;;;;;;;;5042573;28;20322;-54
2022/11/14 03:48:21;;;;;;;25.60;23.40;;;;;;;;;;5043577;28;20606;-54
2022/11/14 03:50:46;;;;;;;25.60;23.35;;;;;;;;;;5043052;28;21028;-54
2022/11/14 03:53:12;;;;;;;25.20;23.20;;;;;;;;;;5029642;28;20229;-54
2022/11/14 03:55:38;;;;;;;26.07;23.80;;;;;;;;;;5039450;28;20192;-54
2022/11/14 03:58:03;;;;;;;27.37;24.73;;;;;;;;;;5030594;28;20183;-54
2022/11/14 04:00:28;;;;;;;26.13;24.03;;;;;;;;;;5030022;28;20574;-54
2022/11/14 04:02:54;;;;;;;26.33;23.97;;;;;;;;;;5030189;28;20187;-55
2022/11/14 04:05:19;;;;;;;25.43;23.33;;;;;;;;;;5030231;28;20712;-54
2022/11/14 04:07:45;;;;;;;25.20;23.13;;;;;;;;;;5039454;28;20671;-55
2022/11/14 04:10:10;;;;;;;26.47;24.27;;;;;;;;;;5049988;28;20191;-55
2022/11/14 04:12:35;;;;;;;25.53;23.40;;;;;;;;;;5035809;28;20268;-54
2022/11/14 04:15:00;;;;;;;24.80;22.80;;;;;;;;;;5041134;28;20183;-55
2022/11/14 04:17:25;;;;;;;24.52;22.38;;;;;;;;;;5033126;28;20639;-54
2022/11/14 04:19:50;;;;;;;23.37;21.37;;;;;;;;;;5042303;28;20277;-55
2022/11/14 04:22:16;;;;;;;26.90;24.50;;;;;;;;;;5044721;28;20654;-54
2022/11/14 04:24:41;;;;;;;25.83;23.70;;;;;;;;;;5030453;28;20191;-55
2022/11/14 04:27:06;;;;;;;26.43;24.17;;;;;;;;;;5038001;28;20267;-54
2022/11/14 04:29:31;;;;;;;25.07;23.00;;;;;;;;;;5028369;28;20180;-54
2022/11/14 04:31:56;;;;;;;25.60;23.60;;;;;;;;;;5047271;28;20263;-54
2022/11/14 04:34:22;;;;;;;27.40;24.90;;;;;;;;;;5036339;28;20172;-54
2022/11/14 04:36:50;;;;;;;26.38;24.08;;;;;;;;;;5039667;28;20175;-55
2022/11/14 04:39:15;;;;;;;26.17;23.87;;;;;;;;;;5032316;28;20212;-54
2022/11/14 04:41:40;;;;;;;24.70;22.50;;;;;;;;;;5040091;28;20632;-56
2022/11/14 04:44:05;;;;;;;25.42;23.35;;;;;;;;;;5039058;28;20196;-55
2022/11/14 04:46:30;;;;;;;25.57;23.27;;;;;;;;;;5034443;28;20211;-55
2022/11/14 04:48:55;;;;;;;25.63;23.52;;;;;;;;;;5036299;28;20176;-55
2022/11/14 04:51:21;;;;;;;25.47;23.37;;;;;;;;;;5048540;28;20543;-55
2022/11/14 04:53:46;;;;;;;26.53;24.40;;;;;;;;;;5036506;28;20235;-55
2022/11/14 04:56:11;;;;;;;26.13;23.90;;;;;;;;;;5045616;28;20562;-54
2022/11/14 04:58:36;;;;;;;26.87;24.70;;;;;;;;;;5040535;28;20204;-54
2022/11/14 05:01:07;;;;;;;27.50;25.30;;;;;;;;;;5045617;28;20190;-54
2022/11/14 05:03:33;;;;;;;26.70;24.37;;;;;;;;;;5028629;28;20184;-55
2022/11/14 05:06:01;;;;;;;26.00;23.90;;;;;;;;;;5033059;28;21224;-55
2022/11/14 05:08:26;;;;;;;25.20;23.00;;;;;;;;;;5040441;28;20181;-55
2022/11/14 05:10:51;;;;;;;25.20;23.10;;;;;;;;;;5035544;28;21016;-54
2022/11/14 05:13:16;;;;;;;26.50;24.23;;;;;;;;;;5044742;28;20203;-54
2022/11/14 05:15:41;;;;;;;27.40;25.10;;;;;;;;;;5046690;28;20244;-55
2022/11/14 05:18:07;;;;;;;27.20;25.00;;;;;;;;;;5052572;28;20184;-55
2022/11/14 05:20:32;;;;;;;27.85;25.60;;;;;;;;;;5046318;28;20594;-56
2022/11/14 05:22:57;;;;;;;25.67;23.63;;;;;;;;;;5040840;28;20186;-55
2022/11/14 05:25:22;;;;;;;27.03;24.73;;;;;;;;;;5037883;28;20180;-55
2022/11/14 05:27:47;;;;;;;29.67;27.20;;;;;;;;;;5037063;28;20657;-55
2022/11/14 05:30:13;;;;;;;25.90;23.80;;;;;;;;;;5033414;28;20195;-54
2022/11/14 05:32:38;;;;;;;26.00;23.80;;;;;;;;;;5032554;28;20215;-55
2022/11/14 05:35:04;;;;;;;26.77;24.37;;;;;;;;;;5045495;28;20577;-55
2022/11/14 05:37:29;;;;;;;27.40;25.10;;;;;;;;;;5032353;28;20232;-56
2022/11/14 05:39:54;;;;;;;27.97;25.70;;;;;;;;;;5026791;28;20695;-56
2022/11/14 05:42:19;;;;;;;28.45;26.00;;;;;;;;;;5032385;28;20325;-55
2022/11/14 05:44:45;;;;;;;28.23;25.73;;;;;;;;;;5042128;28;20178;-55
2022/11/14 05:47:10;;;;;;;28.70;26.20;;;;;;;;;;5042171;28;20186;-55
2022/11/14 05:49:35;;;;;;;28.60;26.20;;;;;;;;;;5041080;28;20194;-55
2022/11/14 05:52:00;;;;;;;28.02;25.65;;;;;;;;;;5025903;28;20541;-54
2022/11/14 05:54:25;;;;;;;29.27;26.77;;;;;;;;;;5038420;28;20254;-54
2022/11/14 05:56:50;;;;;;;29.17;26.67;;;;;;;;;;5031486;28;20193;-54
2022/11/14 05:59:15;;;;;;;28.80;26.40;;;;;;;;;;5035783;28;20225;-54
2022/11/14 06:01:41;;;;;;;28.97;26.37;;;;;;;;;;5026093;28;20193;-54
2022/11/14 06:04:06;;;;;;;31.43;28.77;;;;;;;;;;5044146;28;20175;-56
2022/11/14 06:06:31;;;;;;;31.30;28.53;;;;;;;;;;5032442;28;20186;-55
2022/11/14 06:08:56;;;;;;;27.37;24.97;;;;;;;;;;5028863;28;20178;-55
2022/11/14 06:11:21;;;;;;;28.97;26.63;;;;;;;;;;5034663;28;20209;-57
2022/11/14 06:13:47;;;;;;;29.60;27.10;;;;;;;;;;5032613;28;20198;-55
2022/11/14 06:16:14;;;;;;;29.97;27.37;;;;;;;;;;5048790;28;20462;-55
2022/11/14 06:18:39;;;;;;;31.60;28.47;;;;;;;;;;5037269;28;20556;-55
2022/11/14 06:21:05;;;;;;;31.30;28.40;;;;;;;;;;5039053;28;20598;-54
2022/11/14 06:23:31;;;;;;;28.63;26.17;;;;;;;;;;5048710;28;20542;-58
2022/11/14 06:26:00;;;;;;;27.63;25.37;;;;;;;;;;5032787;28;20604;-58
2022/11/14 06:28:25;;;;;;;29.07;26.47;;;;;;;;;;5032381;28;20180;-59
2022/11/14 06:30:50;;;;;;;29.37;27.00;;;;;;;;;;5040978;28;20724;-59
2022/11/14 06:33:15;;;;;;;27.20;24.90;;;;;;;;;;5050454;28;20180;-59
2022/11/14 06:35:41;;;;;;;28.23;25.75;;;;;;;;;;5044675;28;20260;-54
2022/11/14 06:38:06;;;;;;;27.30;24.90;;;;;;;;;;5031859;28;20621;-56
2022/11/14 06:40:31;;;;;;;29.00;26.70;;;;;;;;;;5031197;28;20207;-55
2022/11/14 06:42:56;;;;;;;32.03;29.23;;;;;;;;;;5051564;28;20627;-55
2022/11/14 06:45:21;;;;;;;29.30;26.83;;;;;;;;;;5035389;28;20182;-55
2022/11/14 06:47:46;;;;;;;29.70;27.10;;;;;;;;;;5050465;28;20179;-54
2022/11/14 06:50:12;;;;;;;30.23;27.60;;;;;;;;;;5042361;28;20184;-55
2022/11/14 06:52:37;;;;;;;30.90;28.17;;;;;;;;;;5043193;28;20207;-55
2022/11/14 06:55:02;;;;;;;31.37;28.67;;;;;;;;;;5036435;28;20197;-55
2022/11/14 06:57:27;;;;;;;29.60;26.90;;;;;;;;;;5039364;28;20179;-56
2022/11/14 06:59:53;;;;;;;31.37;28.73;;;;;;;;;;5030921;28;20234;-55
2022/11/14 07:02:18;;;;;;;31.10;28.00;;;;;;;;;;5037258;28;20184;-54
2022/11/14 07:04:43;;;;;;;30.80;28.20;;;;;;;;;;5031193;28;20206;-55
2022/11/14 07:07:08;;;;;;;30.57;27.97;;;;;;;;;;5036336;28;20207;-55
2022/11/14 07:09:33;;;;;;;30.47;27.97;;;;;;;;;;5043980;28;20221;-55
2022/11/14 07:11:58;;;;;;;33.30;30.10;;;;;;;;;;5050628;28;20695;-55
2022/11/14 07:14:24;;;;;;;32.63;29.93;;;;;;;;;;5046486;28;20232;-55
2022/11/14 07:16:49;;;;;;;32.80;30.00;;;;;;;;;;5033695;28;20857;-55
2022/11/14 07:19:14;;;;;;;31.83;28.98;;;;;;;;;;5031668;28;20561;-55
2022/11/14 07:21:39;;;;;;;31.67;28.87;;;;;;;;;;5042263;28;20193;-55
2022/11/14 07:24:05;;;;;;;31.97;29.27;;;;;;;;;;5031001;28;20173;-54
2022/11/14 07:26:30;;;;;;;32.80;30.13;;;;;;;;;;5039537;28;20658;-55
2022/11/14 07:28:56;;;;;;;33.77;31.00;;;;;;;;;;5043199;28;20193;-56
2022/11/14 07:31:21;;;;;;;33.33;30.53;;;;;;;;;;5038489;28;20182;-55
2022/11/14 07:33:46;;;;;;;32.27;29.47;;;;;;;;;;5046338;28;20582;-55
2022/11/14 07:36:12;;;;;;;32.93;30.03;;;;;;;;;;5045163;28;20270;-55
2022/11/14 07:38:37;;;;;;;34.10;31.00;;;;;;;;;;5039669;28;20235;-56
2022/11/14 07:41:07;;;;;;;33.87;31.00;;;;;;;;;;5035445;28;20283;-56
2022/11/14 07:43:32;;;;;;;34.13;31.03;;;;;;;;;;5047061;28;20178;-56
2022/11/14 07:45:58;;;;;;;33.17;30.37;;;;;;;;;;5050507;28;20657;-56
2022/11/14 07:48:23;;;;;;;32.47;29.60;;;;;;;;;;5032940;28;20715;-56
2022/11/14 07:50:49;;;;;;;34.85;31.75;;;;;;;;;;5030884;28;20679;-57
2022/11/14 07:53:15;;;;;;;34.47;31.47;;;;;;;;;;5030359;28;20556;-57
2022/11/14 07:55:40;;;;;;;34.20;30.90;;;;;;;;;;5030416;28;20186;-55
2022/11/14 07:58:05;;;;;;;33.70;30.80;;;;;;;;;;5029916;28;20913;-56
2022/11/14 08:00:31;;;;;;;34.33;31.33;;;;;;;;;;5030006;28;20207;-55
2022/11/14 08:02:56;;;;;;;35.30;32.30;;;;;;;;;;5030442;28;20234;-55
2022/11/14 08:05:21;;;;;;;33.67;30.57;;;;;;;;;;5030585;28;20179;-54
2022/11/14 08:07:49;;;;;;;35.30;32.20;;;;;;;;;;5032448;28;20233;-56
2022/11/14 08:10:15;;;;;;;35.03;31.73;;;;;;;;;;5030483;28;20185;-56
2022/11/14 08:12:40;;;;;;;32.20;29.37;;;;;;;;;;5029972;28;20592;-55
2022/11/14 08:15:06;;;;;;;32.77;30.10;;;;;;;;;;5030738;28;20582;-55
2022/11/14 08:17:31;;;;;;;32.33;29.63;;;;;;;;;;5029418;28;20192;-55
2022/11/14 08:19:56;;;;;;;34.03;31.00;;;;;;;;;;5031721;28;20654;-55
2022/11/14 08:22:21;;;;;;;34.17;31.27;;;;;;;;;;5033152;28;20251;-55
2022/11/14 08:24:46;;;;;;;32.67;29.57;;;;;;;;;;5034336;28;20668;-56
2022/11/14 08:27:12;;;;;;;32.78;29.88;;;;;;;;;;5034005;28;20513;-56
2022/11/14 08:29:37;;;;;;;33.75;30.95;;;;;;;;;;5036633;28;20276;-56
2022/11/14 08:32:02;;;;;;;31.93;29.07;;;;;;;;;;5034502;28;20177;-56
2022/11/14 08:34:28;;;;;;;33.80;30.90;;;;;;;;;;5034257;28;20176;-56
2022/11/14 08:36:53;;;;;;;33.00;29.93;;;;;;;;;;5034388;28;20184;-56
2022/11/14 08:39:18;;;;;;;33.03;30.13;;;;;;;;;;5034343;28;20694;-56
2022/11/14 08:41:43;;;;;;;31.60;29.10;;;;;;;;;;5034617;28;20185;-56
2022/11/14 08:44:08;;;;;;;32.30;29.50;;;;;;;;;;5053169;28;20200;-56
2022/11/14 08:46:33;;;;;;;32.10;29.30;;;;;;;;;;5053712;28;20171;-56
2022/11/14 08:48:59;;;;;;;32.35;29.55;;;;;;;;;;5052657;28;20578;-55
2022/11/14 08:51:24;;;;;;;32.17;29.38;;;;;;;;;;5053855;28;20168;-55
2022/11/14 08:53:51;;;;;;;30.40;27.63;;;;;;;;;;5053365;28;20233;-55
2022/11/14 08:56:16;;;;;;;31.90;29.30;;;;;;;;;;5053542;28;20175;-56
2022/11/14 08:58:41;;;;;;;31.63;28.83;;;;;;;;;;5053532;28;20680;-56
2022/11/14 09:01:06;;;;;;;32.40;29.60;;;;;;;;;;5034122;28;20234;-56
2022/11/14 09:03:32;;;;;;;30.13;27.07;;;;;;;;;;5033744;28;20202;-56
2022/11/14 09:05:58;;;;;;;31.63;29.00;;;;;;;;;;5033314;28;20177;-56
2022/11/14 09:08:23;;;;;;;31.00;28.37;;;;;;;;;;5033687;28;20579;-56
2022/11/14 09:10:48;;;;;;;31.50;28.38;;;;;;;;;;5043849;28;20649;-56
2022/11/14 09:13:13;;;;;;;31.80;28.80;;;;;;;;;;5053338;28;20208;-54
2022/11/14 09:15:39;;;;;;;29.43;26.93;;;;;;;;;;5052963;28;20682;-56
2022/11/14 09:18:04;;;;;;;30.43;27.77;;;;;;;;;;5053311;28;20183;-54
2022/11/14 09:20:29;;;;;;;31.50;28.83;;;;;;;;;;5048215;28;20206;-54
2022/11/14 09:22:58;;;;;;;31.70;28.77;;;;;;;;;;5033377;28;20188;-54
2022/11/14 09:25:25;;;;;;;31.93;29.10;;;;;;;;;;5033353;28;20166;-56
2022/11/14 09:27:50;;;;;;;32.37;29.47;;;;;;;;;;5032710;28;20598;-55
2022/11/14 09:30:15;;;;;;;30.27;27.43;;;;;;;;;;5033266;28;20658;-54
2022/11/14 09:32:40;;;;;;;30.93;28.00;;;;;;;;;;5049517;28;20255;-54
2022/11/14 09:35:06;;;;;;;27.70;25.30;;;;;;;;;;5053166;28;20183;-55
2022/11/14 09:37:31;;;;;;;30.20;27.50;;;;;;;;;;5052833;28;20180;-56
2022/11/14 09:39:56;;;;;;;29.57;26.77;;;;;;;;;;5052411;28;20672;-55
2022/11/14 09:42:30;;;;;;;29.33;26.73;;;;;;;;;;5051091;28;20715;-55
2022/11/14 09:45:03;;;;;;;28.93;26.40;;;;;;;;;;5035104;28;20185;-55
2022/11/14 09:47:30;;;;;;;29.53;26.97;;;;;;;;;;5032916;28;20648;-55
2022/11/14 09:50:00;;;;;;;27.90;25.50;;;;;;;;;;5032650;28;20585;-54
2022/11/14 09:52:31;;;;;;;27.97;25.43;;;;;;;;;;5034169;28;20648;-54
2022/11/14 09:54:58;;;;;;;29.00;26.40;;;;;;;;;;5032492;28;20577;-56
2022/11/14 09:57:24;;;;;;;29.47;26.77;;;;;;;;;;5032687;28;20573;-55
2022/11/14 09:59:49;;;;;;;28.20;25.70;;;;;;;;;;5032678;28;20747;-55
2022/11/14 10:02:27;;;;;;;28.80;26.23;;;;;;;;;;5032391;28;21235;-56
2022/11/14 10:05:11;;;;;;;27.67;25.37;;;;;;;;;;5041672;28;20181;-56
2022/11/14 10:07:51;;;;;;;29.20;26.50;;;;;;;;;;5050093;28;20607;-55
2022/11/14 10:10:22;;;;;;;29.80;27.00;;;;;;;;;;5052248;28;20612;-55
2022/11/14 10:13:13;;;;;;;29.27;26.73;;;;;;;;;;5050135;28;20608;-54
2022/11/14 10:15:53;;;;;;;30.70;28.10;;;;;;;;;;5032303;28;20723;-55
2022/11/14 10:18:41;;;;;;;28.23;25.47;;;;;;;;;;5032105;28;20567;-54
2022/11/14 10:21:13;;;;;;;29.13;26.50;;;;;;;;;;5032383;28;21161;-56
2022/11/14 10:23:50;;;;;;;29.33;26.60;;;;;;;;;;5033078;28;20613;-54
2022/11/14 10:26:18;;;;;;;29.30;26.73;;;;;;;;;;5031971;28;20585;-54
2022/11/14 10:28:52;;;;;;;28.20;25.90;;;;;;;;;;5031969;28;20936;-54
2022/11/14 10:31:24;;;;;;;28.97;26.47;;;;;;;;;;5032144;28;20635;-54
2022/11/14 10:33:52;;;;;;;26.37;24.13;;;;;;;;;;5031503;28;20581;-56
2022/11/14 10:36:20;;;;;;;27.03;24.50;;;;;;;;;;5048566;28;20612;-56
2022/11/14 10:38:48;;;;;;;28.60;26.00;;;;;;;;;;5051492;28;20706;-55
2022/11/14 10:41:13;;;;;;;28.30;25.67;;;;;;;;;;5051954;28;20735;-54
2022/11/14 10:43:42;;;;;;;28.33;26.00;;;;;;;;;;5051715;28;20700;-55
2022/11/14 10:46:19;;;;;;;26.40;24.17;;;;;;;;;;5047529;28;20519;-55
2022/11/14 10:48:46;;;;;;;29.67;27.17;;;;;;;;;;5049505;28;20695;-55
2022/11/14 10:51:18;;;;;;;28.90;26.10;;;;;;;;;;5051517;28;21121;-55
2022/11/14 10:53:55;;;;;;;26.70;24.40;;;;;;;;;;5051402;28;20642;-55
2022/11/14 10:56:21;;;;;;;26.33;23.67;;;;;;;;;;5051726;28;20714;-55
2022/11/14 10:58:46;;;;;;;28.50;26.00;;;;;;;;;;5034816;28;21241;-54
2022/11/14 11:01:30;;;;;;;27.47;25.07;;;;;;;;;;5031488;28;20170;-55
2022/11/14 11:03:55;;;;;;;26.47;24.27;;;;;;;;;;5047712;28;20245;-55
2022/11/14 11:06:24;;;;;;;27.25;24.85;;;;;;;;;;5051373;28;20585;-55
2022/11/14 11:11:33;;;;;;;26.77;24.50;;;;;;;;;;5051313;28;20567;-55
2022/11/14 11:13:59;;;;;;;27.30;24.80;;;;;;;;;;5036431;28;20626;-55
2022/11/14 11:16:25;;;;;;;28.30;25.70;;;;;;;;;;5031255;28;20199;-55
2022/11/14 11:18:50;;;;;;;26.47;24.17;;;;;;;;;;5031045;28;21183;-55
2022/11/14 11:21:17;;;;;;;26.00;23.87;;;;;;;;;;5031256;28;20174;-55
2022/11/14 11:23:53;;;;;;;28.20;25.87;;;;;;;;;;5031276;28;20182;-55
2022/11/14 11:26:25;;;;;;;26.10;23.80;;;;;;;;;;5030716;28;20616;-55
2022/11/14 11:29:00;;;;;;;27.00;24.70;;;;;;;;;;5031109;28;20578;-55
2022/11/14 11:31:25;;;;;;;24.07;22.07;;;;;;;;;;5031218;28;20956;-56
2022/11/14 11:33:50;;;;;;;26.93;24.63;;;;;;;;;;5030529;28;20617;-56
2022/11/14 11:36:18;;;;;;;26.40;24.10;;;;;;;;;;5030866;28;20258;-55
2022/11/14 11:38:44;;;;;;;25.83;23.57;;;;;;;;;;5033101;28;20745;-54
2022/11/14 11:41:27;;;;;;;26.63;24.23;;;;;;;;;;5035676;28;20713;-54
2022/11/14 11:43:57;;;;;;;26.30;24.00;;;;;;;;;;5036844;28;20182;-55
2022/11/14 11:46:38;;;;;;;25.53;23.17;;;;;;;;;;5050791;28;20574;-54
2022/11/14 11:49:11;;;;;;;24.47;22.30;;;;;;;;;;5050774;28;20577;-55
2022/11/14 11:51:38;;;;;;;26.60;24.40;;;;;;;;;;5037973;28;20617;-55
2022/11/14 11:54:15;;;;;;;25.43;23.23;;;;;;;;;;5030402;28;20644;-55
2022/11/14 11:56:40;;;;;;;27.27;24.87;;;;;;;;;;5030485;28;20573;-54
2022/11/14 11:59:21;;;;;;;28.07;25.37;;;;;;;;;;5030685;28;20661;-55
2022/11/14 12:01:46;;;;;;;26.60;24.30;;;;;;;;;;5035439;28;20606;-55
2022/11/14 12:04:11;;;;;;;28.17;25.57;;;;;;;;;;5050546;28;20624;-55
2022/11/14 12:06:40;;;;;;;26.60;24.20;;;;;;;;;;5050479;28;20176;-55
2022/11/14 12:09:23;;;;;;;27.37;24.87;;;;;;;;;;5050403;28;20205;-55
2022/11/14 12:12:02;;;;;;;26.63;24.43;;;;;;;;;;5047961;28;20744;-55
2022/11/14 12:14:27;;;;;;;28.83;26.30;;;;;;;;;;5050621;28;20569;-55
2022/11/14 12:17:12;;;;;;;27.35;25.15;;;;;;;;;;5050349;28;20647;-55
2022/11/14 12:19:40;;;;;;;25.60;23.37;;;;;;;;;;5048090;28;20684;-55
2022/11/14 12:22:12;;;;;;;25.70;23.50;;;;;;;;;;5032153;28;20618;-56
2022/11/14 12:24:48;;;;;;;26.10;23.67;;;;;;;;;;5030248;28;20582;-55
2022/11/14 12:27:16;;;;;;;25.23;22.97;;;;;;;;;;5030156;28;20684;-56
2022/11/14 12:29:52;;;;;;;25.73;23.53;;;;;;;;;;5030665;28;20598;-56
2022/11/14 12:32:28;;;;;;;25.00;22.90;;;;;;;;;;5040157;28;20710;-55
2022/11/14 12:34:53;;;;;;;26.90;24.60;;;;;;;;;;5049173;28;20673;-56
2022/11/14 12:37:24;;;;;;;26.33;24.13;;;;;;;;;;5049793;28;20600;-55
2022/11/14 12:39:54;;;;;;;25.23;23.10;;;;;;;;;;5050143;28;20664;-55
2022/11/14 12:42:20;;;;;;;26.20;24.00;;;;;;;;;;5047707;28;21176;-55
2022/11/14 12:44:45;;;;;;;25.40;23.00;;;;;;;;;;5047960;28;20609;-55
2022/11/14 12:47:13;;;;;;;26.23;23.90;;;;;;;;;;5049962;28;20620;-56
2022/11/14 12:49:47;;;;;;;28.27;25.57;;;;;;;;;;5050193;28;20184;-55
2022/11/14 12:52:33;;;;;;;26.20;24.00;;;;;;;;;;5050061;28;20626;-55
2022/11/14 12:54:58;;;;;;;25.00;23.10;;;;;;;;;;5026558;28;20735;-55
2022/11/14 12:57:47;;;;;;;27.55;25.17;;;;;;;;;;5030040;28;20651;-56
2022/11/14 13:00:13;;;;;;;27.80;25.50;;;;;;;;;;5029878;28;20199;-56
2022/11/14 13:02:54;;;;;;;27.77;25.37;;;;;;;;;;5029972;28;20630;-56
2022/11/14 13:05:35;;;;;;;25.30;23.20;;;;;;;;;;5033812;28;20710;-56
2022/11/14 13:08:10;;;;;;;25.63;23.43;;;;;;;;;;5049958;28;20984;-55
2022/11/14 13:10:37;;;;;;;26.57;24.23;;;;;;;;;;5053325;28;20621;-55
2022/11/14 13:22:03;;;;;;;26.53;24.10;;;;;;;;;;5033309;28;20684;-55
2022/11/14 13:24:48;;;;;;;24.90;22.80;;;;;;;;;;5034158;28;20680;-56
2022/11/14 13:27:26;;;;;;;25.20;23.10;;;;;;;;;;5037220;28;20628;-56
2022/11/14 13:29:52;;;;;;;25.63;23.33;;;;;;;;;;5053187;28;20591;-56
2022/11/14 13:32:36;;;;;;;25.50;23.30;;;;;;;;;;5053025;28;20577;-56
2022/11/14 13:35:03;;;;;;;26.13;24.10;;;;;;;;;;5050534;28;20621;-56
2022/11/14 13:37:39;;;;;;;25.93;23.83;;;;;;;;;;5051363;28;20668;-56
2022/11/14 13:40:15;;;;;;;24.20;22.10;;;;;;;;;;5053121;28;20626;-56
2022/11/14 13:42:55;;;;;;;25.53;23.43;;;;;;;;;;5052851;28;20607;-56
2022/11/14 13:45:29;;;;;;;24.63;22.53;;;;;;;;;;5050901;28;20592;-57
2022/11/14 13:48:07;;;;;;;28.37;26.17;;;;;;;;;;5032658;28;20655;-56
2022/11/14 13:50:35;;;;;;;25.90;23.63;;;;;;;;;;5032896;28;20699;-55
2022/11/14 13:53:01;;;;;;;25.70;23.40;;;;;;;;;;5032590;28;21057;-56
2022/11/14 13:55:31;;;;;;;26.20;24.20;;;;;;;;;;5033098;28;20592;-56
2022/11/14 13:58:03;;;;;;;27.53;25.03;;;;;;;;;;5034159;28;20191;-56
2022/11/14 14:00:30;;;;;;;26.33;24.20;;;;;;;;;;5032565;28;20643;-55
2022/11/14 14:03:04;;;;;;;25.50;23.50;;;;;;;;;;5033711;28;20713;-55
2022/11/14 14:05:48;;;;;;;26.67;24.37;;;;;;;;;;5032777;28;20588;-55
2022/11/14 14:08:28;;;;;;;27.03;24.73;;;;;;;;;;5031941;28;20624;-56
2022/11/14 14:11:11;;;;;;;27.20;24.93;;;;;;;;;;5032339;28;20695;-55
2022/11/14 14:13:39;;;;;;;26.90;24.70;;;;;;;;;;5032202;28;20647;-54
2022/11/14 14:16:04;;;;;;;26.90;24.70;;;;;;;;;;5032458;28;21525;-56
2022/11/14 14:18:35;;;;;;;28.53;26.07;;;;;;;;;;5042089;28;20721;-56
2022/11/14 14:21:19;;;;;;;27.33;25.13;;;;;;;;;;5052385;28;20274;-54
2022/11/14 14:24:01;;;;;;;29.07;26.63;;;;;;;;;;5051926;28;20581;-54
2022/11/14 14:26:29;;;;;;;28.23;25.90;;;;;;;;;;5052351;28;20576;-56
2022/11/14 14:29:05;;;;;;;29.60;27.07;;;;;;;;;;5038400;28;21253;-56
2022/11/14 14:31:40;;;;;;;28.27;25.87;;;;;;;;;;5032365;28;20604;-55